Time;durP1;ratioP1;P1;durP2;ratioP2;P2;SDS_P1;SDS_P2;PMS_P1;PMS_P2;Temp;Humidity;BMP_temperature;BMP_pressure;BME280_temperature;BME280_humidity;BME280_pressure;Samples;Min_cycle;Max_cycle;Signal;HPM_P1;HPM_P2
2022/06/12 00:00:39;;;;;;;9.10;8.20;;;;;;;13.59;100.00;96992.69;5075914;28;20655;-74
2022/06/12 00:03:09;;;;;;;10.23;6.57;;;;;;;13.85;100.00;96984.44;5057154;28;20777;-74
2022/06/12 00:05:40;;;;;;;14.37;6.47;;;;;;;13.96;100.00;96977.56;5051023;28;20437;-74
2022/06/12 00:08:07;;;;;;;8.40;7.47;;;;;;;14.01;100.00;96998.63;5052018;28;20443;-74
2022/06/12 00:10:36;;;;;;;13.23;6.30;;;;;;;13.78;100.00;96992.97;5050279;28;20495;-74
2022/06/12 00:13:04;;;;;;;13.43;9.03;;;;;;;13.83;100.00;96990.06;5050106;28;20647;-74
2022/06/12 00:15:32;;;;;;;14.07;6.57;;;;;;;14.02;100.00;96988.75;5051060;28;20432;-74
2022/06/12 00:18:00;;;;;;;8.80;5.80;;;;;;;13.58;100.00;96989.25;5057739;28;20456;-74
2022/06/12 00:20:28;;;;;;;11.27;6.00;;;;;;;13.70;100.00;96979.75;5066310;28;21026;-74
2022/06/12 00:22:56;;;;;;;7.57;6.20;;;;;;;14.04;100.00;96992.66;5049596;28;20524;-74
2022/06/12 00:25:28;;;;;;;6.17;5.60;;;;;;;13.74;100.00;96996.59;5049538;28;20475;-74
2022/06/12 00:27:55;;;;;;;11.63;6.23;;;;;;;13.85;100.00;97000.38;5032972;28;20549;-74
2022/06/12 00:30:25;;;;;;;11.23;6.10;;;;;;;13.99;100.00;96998.16;5066125;28;20540;-74
2022/06/12 00:32:54;;;;;;;5.50;5.10;;;;;;;13.61;100.00;96959.34;5066123;28;20500;-75
2022/06/12 00:35:29;;;;;;;8.80;5.37;;;;;;;13.73;100.00;96992.38;5066072;28;20507;-74
2022/06/12 00:37:56;;;;;;;9.80;6.10;;;;;;;13.74;100.00;96994.69;5032733;28;20441;-75
2022/06/12 00:40:23;;;;;;;7.47;5.90;;;;;;;13.45;100.00;96958.44;5049166;28;20520;-74
2022/06/12 00:42:55;;;;;;;10.70;6.30;;;;;;;13.78;100.00;96989.53;5049200;28;20449;-74
2022/06/12 00:45:46;;;;;;;12.87;6.80;;;;;;;13.72;100.00;96988.94;5065902;28;20901;-74
2022/06/12 00:48:30;;;;;;;7.40;5.37;;;;;;;13.78;100.00;96984.97;5032691;28;20520;-74
2022/06/12 00:51:00;;;;;;;9.50;6.30;;;;;;;13.42;100.00;96976.94;5049239;28;20543;-74
2022/06/12 00:53:35;;;;;;;7.90;6.40;;;;;;;13.42;100.00;96963.66;5066030;28;20998;-74
2022/06/12 00:56:09;;;;;;;12.83;5.97;;;;;;;13.45;100.00;96981.56;5065856;28;20536;-74
2022/06/12 00:58:44;;;;;;;8.53;5.80;;;;;;;13.32;100.00;96962.94;5050676;28;20821;-74
2022/06/12 01:01:18;;;;;;;6.20;5.23;;;;;;;13.37;100.00;96969.19;5065953;28;20501;-74
2022/06/12 01:06:35;;;;;;;10.60;6.30;;;;;;;13.25;100.00;96985.84;5049029;28;20506;-75
2022/06/12 01:09:08;;;;;;;8.47;7.10;;;;;;;12.90;100.00;96959.56;5032483;28;21059;-74
2022/06/12 01:11:36;;;;;;;7.43;6.83;;;;;;;13.03;100.00;96976.31;5049219;28;20956;-74
2022/06/12 01:14:07;;;;;;;7.13;5.93;;;;;;;12.89;100.00;96983.78;5048806;28;20468;-74
2022/06/12 01:16:40;;;;;;;7.70;6.00;;;;;;;12.80;100.00;96967.91;5048930;28;20865;-74
2022/06/12 01:19:16;;;;;;;7.93;6.90;;;;;;;13.00;100.00;96985.72;5065766;28;20453;-74
2022/06/12 01:22:32;;;;;;;6.80;6.10;;;;;;;12.84;100.00;96984.75;5050323;28;20431;-74
2022/06/12 01:25:09;;;;;;;9.53;7.90;;;;;;;12.41;100.00;96921.38;5024710;28;20541;-74
2022/06/12 01:28:11;;;;;;;6.80;5.53;;;;;;;12.59;100.00;96981.19;5049096;28;20498;-74
2022/06/12 01:31:06;;;;;;;6.93;6.00;;;;;;;12.62;100.00;96977.88;5032574;28;20798;-74
2022/06/12 01:33:42;;;;;;;6.57;5.97;;;;;;;12.45;100.00;96975.34;5048765;28;20461;-74
2022/06/12 01:36:15;;;;;;;6.90;5.80;;;;;;;12.56;100.00;96965.13;5048652;28;20486;-74
2022/06/12 01:38:58;;;;;;;6.67;6.00;;;;;;;12.31;100.00;96972.94;5048835;28;20940;-74
2022/06/12 01:41:51;;;;;;;8.20;7.10;;;;;;;12.35;100.00;96971.19;5049020;28;20548;-74
2022/06/12 01:44:33;;;;;;;6.50;6.00;;;;;;;12.40;100.00;96967.56;5048774;28;20465;-74
2022/06/12 01:47:09;;;;;;;6.17;5.70;;;;;;;12.25;100.00;96944.25;5049114;28;21103;-74
2022/06/12 01:49:36;;;;;;;7.00;6.30;;;;;;;12.41;100.00;96972.53;5065151;28;20495;-74
2022/06/12 01:52:08;;;;;;;6.70;6.10;;;;;;;12.26;100.00;96967.03;5048530;28;20448;-74
2022/06/12 01:54:45;;;;;;;6.70;6.10;;;;;;;12.10;100.00;96946.38;5035693;28;20457;-74
2022/06/12 01:57:24;;;;;;;7.03;6.37;;;;;;;12.09;100.00;96955.41;5065078;28;20482;-74
2022/06/12 02:00:02;;;;;;;7.90;7.30;;;;;;;12.07;100.00;96949.66;5065423;28;20499;-74
2022/06/12 02:02:41;;;;;;;7.23;6.43;;;;;;;12.17;100.00;96964.44;5064499;28;20479;-74
2022/06/12 02:05:39;;;;;;;6.90;6.30;;;;;;;12.09;100.00;96952.00;5048642;28;20887;-74
2022/06/12 02:08:14;;;;;;;8.27;5.73;;;;;;;11.83;100.00;96928.28;5048343;28;20503;-74
2022/06/12 02:10:48;;;;;;;7.63;6.00;;;;;;;12.17;100.00;96961.00;5065001;28;20476;-74
2022/06/12 02:13:27;;;;;;;6.33;5.60;;;;;;;11.84;100.00;96959.75;5048326;28;20569;-74
2022/06/12 02:15:57;;;;;;;11.03;4.90;;;;;;;12.06;100.00;96965.88;5087702;28;20417;-74
2022/06/12 02:18:30;;;;;;;7.10;5.87;;;;;;;12.16;100.00;96970.06;5056153;28;20956;-74
2022/06/12 02:21:10;;;;;;;7.07;5.53;;;;;;;11.69;100.00;96970.84;5049988;28;20441;-74
2022/06/12 02:23:43;;;;;;;7.50;5.87;;;;;;;11.77;100.00;96966.63;5053474;28;20642;-74
2022/06/12 02:26:15;;;;;;;6.33;5.73;;;;;;;11.52;100.00;96931.94;5069285;28;20864;-73
2022/06/12 02:28:49;;;;;;;6.70;5.77;;;;;;;11.46;100.00;96941.13;5051986;28;21098;-74
2022/06/12 02:31:28;;;;;;;6.63;5.50;;;;;;;11.56;100.00;96945.31;5068665;28;20511;-74
2022/06/12 02:33:59;;;;;;;7.57;6.77;;;;;;;11.69;100.00;96962.13;5068716;28;20555;-74
2022/06/12 02:36:33;;;;;;;6.50;5.80;;;;;;;11.37;100.00;96891.97;5052067;28;20437;-74
2022/06/12 02:39:05;;;;;;;9.60;6.37;;;;;;;11.61;100.00;96952.31;5068210;28;21022;-74
2022/06/12 02:41:40;;;;;;;5.80;5.30;;;;;;;11.95;100.00;96959.41;5052000;28;20453;-74
2022/06/12 02:44:13;;;;;;;6.03;5.43;;;;;;;11.98;100.00;96956.09;5051670;28;20464;-74
2022/06/12 02:46:46;;;;;;;6.50;6.00;;;;;;;11.87;100.00;96963.63;5051620;28;20948;-74
2022/06/12 02:49:15;;;;;;;6.87;6.20;;;;;;;11.42;100.00;96928.88;5053715;28;20540;-74
2022/06/12 02:52:02;;;;;;;6.00;5.40;;;;;;;12.02;100.00;96957.00;5053174;28;20429;-74
2022/06/12 02:54:41;;;;;;;7.27;6.67;;;;;;;12.18;100.00;96959.91;5051527;28;20459;-74
2022/06/12 02:57:34;;;;;;;7.13;6.50;;;;;;;11.89;100.00;96936.84;5068047;28;20437;-75
2022/06/12 03:00:07;;;;;;;7.50;6.30;;;;;;;11.76;100.00;96960.53;5034318;28;20469;-75
2022/06/12 03:02:56;;;;;;;11.67;5.90;;;;;;;11.46;100.00;96935.84;5052439;28;20436;-74
2022/06/12 03:05:30;;;;;;;6.20;5.60;;;;;;;11.31;100.00;96939.00;5067613;28;20434;-75
2022/06/12 03:08:15;;;;;;;6.23;5.63;;;;;;;11.62;100.00;96924.72;5050998;28;20498;-75
2022/06/12 03:10:50;;;;;;;9.13;5.57;;;;;;;11.94;100.00;96941.94;5051332;28;20425;-75
2022/06/12 03:13:18;;;;;;;7.00;6.30;;;;;;;11.72;100.00;96935.75;5067479;28;20492;-75
2022/06/12 03:15:50;;;;;;;6.67;6.17;;;;;;;11.73;100.00;96963.81;5067555;28;20483;-75
2022/06/12 03:18:21;;;;;;;11.70;5.80;;;;;;;11.87;100.00;96960.19;5056006;28;20434;-75
2022/06/12 03:21:06;;;;;;;9.53;6.40;;;;;;;11.98;100.00;96964.81;5052233;28;20547;-75
2022/06/12 03:23:50;;;;;;;5.80;5.40;;;;;;;11.88;100.00;96951.16;5050801;28;20472;-75
2022/06/12 03:26:46;;;;;;;7.43;6.00;;;;;;;11.48;100.00;96911.69;5050693;28;20441;-75
2022/06/12 03:29:34;;;;;;;5.60;5.10;;;;;;;11.69;100.00;96968.19;5054619;28;20994;-75
2022/06/12 03:32:30;;;;;;;6.33;5.50;;;;;;;11.49;100.00;96939.75;5053013;28;20432;-76
2022/06/12 03:34:57;;;;;;;8.70;5.63;;;;;;;11.56;100.00;96971.81;5039193;28;20993;-75
2022/06/12 03:37:30;;;;;;;5.03;4.73;;;;;;;11.42;100.00;96973.88;5055541;28;20473;-76
2022/06/12 03:40:00;;;;;;;6.63;6.03;;;;;;;11.63;100.00;96974.75;5037658;28;20445;-76
2022/06/12 03:42:38;;;;;;;10.03;6.33;;;;;;;11.52;100.00;96952.38;5050892;28;20933;-76
2022/06/12 03:45:14;;;;;;;7.70;4.80;;;;;;;11.80;100.00;96973.94;5050354;28;20433;-76
2022/06/12 03:47:51;;;;;;;6.80;5.63;;;;;;;11.76;100.00;96981.75;5050470;28;20433;-76
2022/06/12 03:50:30;;;;;;;6.70;6.00;;;;;;;11.62;100.00;96952.03;5066702;28;20464;-76
2022/06/12 03:53:06;;;;;;;6.70;5.90;;;;;;;11.69;100.00;96972.72;5051591;28;20516;-76
2022/06/12 03:58:31;;;;;;;6.97;5.13;;;;;;;11.69;100.00;96957.59;5051629;28;20456;-75
2022/06/12 04:01:00;;;;;;;12.27;6.20;;;;;;;11.47;100.00;96936.63;5050105;28;20488;-76
2022/06/12 04:03:39;;;;;;;8.90;6.03;;;;;;;11.93;100.00;96969.53;5066875;28;20433;-76
2022/06/12 04:06:12;;;;;;;9.63;5.73;;;;;;;11.89;100.00;96956.16;5066894;28;20847;-76
2022/06/12 04:08:43;;;;;;;8.57;6.07;;;;;;;11.89;100.00;96956.16;5066602;28;20880;-76
2022/06/12 04:11:12;;;;;;;7.90;5.97;;;;;;;12.18;100.00;96983.78;5050142;28;20956;-76
2022/06/12 04:13:41;;;;;;;10.97;6.40;;;;;;;11.89;100.00;96940.25;5066584;28;21009;-76
2022/06/12 04:16:17;;;;;;;7.50;6.23;;;;;;;11.93;100.00;96945.69;5066591;28;20425;-76
2022/06/12 04:18:44;;;;;;;9.87;7.40;;;;;;;11.96;100.00;96953.00;5048052;28;21019;-76
2022/06/12 04:21:35;;;;;;;10.77;6.70;;;;;;;12.26;100.00;96972.31;5058433;28;20437;-76
2022/06/12 04:24:36;;;;;;;7.40;6.50;;;;;;;12.47;100.00;96977.69;5039847;28;20465;-76
2022/06/12 04:27:07;;;;;;;9.57;6.87;;;;;;;12.72;100.00;96977.50;5017105;28;20490;-76
2022/06/12 04:29:38;;;;;;;7.40;6.70;;;;;;;12.82;100.00;96981.66;5049769;28;20495;-76
2022/06/12 04:32:07;;;;;;;10.40;7.37;;;;;;;13.05;100.00;96989.25;5066560;28;20540;-76
2022/06/12 04:34:38;;;;;;;7.83;7.00;;;;;;;13.19;100.00;96987.91;5066397;28;20512;-76
2022/06/12 04:37:26;;;;;;;8.13;7.33;;;;;;;13.19;100.00;96981.81;5049440;28;20499;-76
2022/06/12 04:39:55;;;;;;;8.07;7.33;;;;;;;13.36;100.00;96971.06;5049350;28;20515;-76
2022/06/12 04:42:24;;;;;;;8.67;7.10;;;;;;;13.59;100.00;96984.72;5049895;28;20877;-76
2022/06/12 04:44:52;;;;;;;7.70;6.97;;;;;;;13.58;100.00;96965.34;5035766;28;20933;-76
2022/06/12 04:47:22;;;;;;;9.10;7.20;;;;;;;13.45;100.00;96963.75;5066080;28;20533;-76
2022/06/12 04:49:49;;;;;;;12.23;7.20;;;;;;;13.59;100.00;96969.53;5049302;28;20556;-76
2022/06/12 04:52:17;;;;;;;8.47;7.80;;;;;;;13.70;100.00;96958.50;5066061;28;20472;-76
2022/06/12 04:54:45;;;;;;;8.00;7.30;;;;;;;14.15;100.00;96988.44;5065835;28;20534;-76
2022/06/12 04:57:14;;;;;;;8.90;7.40;;;;;;;14.37;100.00;96981.88;5049215;28;20479;-76
2022/06/12 04:59:41;;;;;;;10.53;8.20;;;;;;;14.34;100.00;96949.84;5049221;28;20481;-76
2022/06/12 05:02:08;;;;;;;7.83;7.13;;;;;;;14.49;100.00;96984.56;5050844;28;20430;-76
2022/06/12 05:04:35;;;;;;;7.13;6.43;;;;;;;14.40;100.00;96972.47;5065915;28;20522;-75
2022/06/12 05:07:03;;;;;;;9.63;7.40;;;;;;;14.68;100.00;96991.94;5050421;28;20433;-76
2022/06/12 05:09:34;;;;;;;8.20;7.10;;;;;;;15.06;100.00;96983.53;5065832;28;21047;-76
2022/06/12 05:12:02;;;;;;;7.27;6.67;;;;;;;15.35;100.00;96978.97;5049280;28;20434;-76
2022/06/12 05:14:29;;;;;;;6.93;6.43;;;;;;;15.48;100.00;96982.34;5049325;28;20494;-76
2022/06/12 05:17:00;;;;;;;10.40;6.60;;;;;;;14.87;100.00;96975.41;5032476;28;20526;-76
2022/06/12 05:19:31;;;;;;;7.87;7.07;;;;;;;15.14;100.00;96957.09;5049172;28;20453;-76
2022/06/12 05:21:59;;;;;;;7.37;6.87;;;;;;;15.48;100.00;96977.00;5049015;28;20574;-76
2022/06/12 05:24:27;;;;;;;7.00;6.40;;;;;;;15.63;100.00;96974.41;5049248;28;20533;-76
2022/06/12 05:26:54;;;;;;;7.43;6.80;;;;;;;15.53;100.00;96950.91;5049228;28;20497;-76
2022/06/12 05:29:30;;;;;;;10.60;7.33;;;;;;;15.88;100.00;96971.56;5048965;28;20887;-76
2022/06/12 05:31:57;;;;;;;7.00;6.50;;;;;;;16.08;100.00;96959.09;5049113;28;20437;-76
2022/06/12 05:34:26;;;;;;;7.77;7.13;;;;;;;16.05;100.00;96954.47;5065507;28;20453;-76
2022/06/12 05:36:53;;;;;;;7.70;6.90;;;;;;;16.17;100.00;96971.16;5065707;28;20917;-76
2022/06/12 05:39:20;;;;;;;7.53;6.93;;;;;;;16.22;100.00;96959.44;5048869;28;20526;-76
2022/06/12 05:41:48;;;;;;;8.40;7.60;;;;;;;16.08;100.00;96981.22;5050356;28;20445;-76
2022/06/12 05:44:16;;;;;;;7.20;6.60;;;;;;;16.01;100.00;96986.38;5048962;28;20483;-76
2022/06/12 05:46:43;;;;;;;7.17;6.60;;;;;;;15.87;100.00;96952.13;5048956;28;20976;-76
2022/06/12 05:49:11;;;;;;;8.77;7.70;;;;;;;16.32;100.00;96990.94;5048672;28;21034;-76
2022/06/12 05:51:37;;;;;;;15.73;7.07;;;;;;;16.30;100.00;96949.69;5065356;28;20483;-76
2022/06/12 05:54:10;;;;;;;7.73;7.10;;;;;;;16.70;100.00;96976.16;5049329;28;21536;-76
2022/06/12 05:56:38;;;;;;;7.60;6.87;;;;;;;17.09;100.00;96991.09;5051571;28;20814;-76
2022/06/12 05:59:06;;;;;;;6.80;6.10;;;;;;;17.42;100.00;96992.47;5052731;28;20493;-73
2022/06/12 06:01:33;;;;;;;7.63;7.10;;;;;;;17.32;100.00;96971.63;5036003;28;20475;-74
2022/06/12 06:04:00;;;;;;;7.83;7.10;;;;;;;17.67;100.00;96972.28;5053920;28;20479;-74
2022/06/12 06:06:30;;;;;;;6.73;6.20;;;;;;;18.10;100.00;96997.09;5069563;28;20863;-74
2022/06/12 06:09:01;;;;;;;7.30;6.20;;;;;;;18.36;100.00;96974.16;5052305;28;20592;-74
2022/06/12 06:11:28;;;;;;;6.70;6.10;;;;;;;18.55;100.00;96992.78;5052389;28;20929;-73
2022/06/12 06:13:55;;;;;;;6.50;6.00;;;;;;;18.65;100.00;96962.72;5068948;28;20441;-73
2022/06/12 06:16:23;;;;;;;6.03;5.50;;;;;;;18.68;100.00;96979.97;5069218;28;20429;-74
2022/06/12 06:18:50;;;;;;;6.50;5.90;;;;;;;19.00;100.00;96996.47;5052285;28;20552;-73
2022/06/12 06:21:18;;;;;;;5.80;5.30;;;;;;;19.17;100.00;96993.22;5052219;28;20473;-74
2022/06/12 06:23:47;;;;;;;6.23;5.73;;;;;;;19.66;100.00;96992.25;5068375;28;20460;-74
2022/06/12 06:26:14;;;;;;;5.90;5.40;;;;;;;19.76;100.00;96996.94;5052090;28;20958;-74
2022/06/12 06:28:41;;;;;;;6.17;5.53;;;;;;;19.96;100.00;96976.03;5051925;28;20968;-74
2022/06/12 06:31:10;;;;;;;6.97;6.27;;;;;;;20.00;100.00;96982.19;5068817;28;20831;-74
2022/06/12 06:33:37;;;;;;;7.70;7.10;;;;;;;20.00;100.00;96999.06;5051997;28;21008;-74
2022/06/12 06:36:08;;;;;;;6.13;5.60;;;;;;;19.91;100.00;96979.06;5053102;28;20461;-74
2022/06/12 06:38:36;;;;;;;6.43;5.93;;;;;;;20.46;100.00;96992.56;5068459;28;20461;-74
2022/06/12 06:41:03;;;;;;;6.63;6.03;;;;;;;20.42;100.00;97000.56;5051745;28;20483;-74
2022/06/12 06:43:30;;;;;;;6.53;6.07;;;;;;;21.00;100.00;96990.94;5035233;28;20529;-74
2022/06/12 06:46:15;;;;;;;6.53;5.93;;;;;;;21.19;100.00;96979.84;5068392;28;20475;-73
2022/06/12 06:48:42;;;;;;;7.03;6.47;;;;;;;21.21;98.65;96989.06;5052231;28;20469;-73
2022/06/12 06:51:09;;;;;;;6.50;5.93;;;;;;;21.31;96.68;97002.97;5072127;28;20452;-73
2022/06/12 06:53:36;;;;;;;6.90;6.20;;;;;;;21.46;96.41;96996.47;5037641;28;20494;-74
2022/06/12 06:56:03;;;;;;;7.03;6.23;;;;;;;21.62;93.62;96996.13;5051385;28;20465;-74
2022/06/12 06:58:31;;;;;;;6.67;5.20;;;;;;;21.64;94.19;97005.38;5052990;28;20429;-74
2022/06/12 07:00:59;;;;;;;6.63;6.13;;;;;;;21.60;91.90;96999.19;5068254;28;20464;-74
2022/06/12 07:03:25;;;;;;;6.37;5.77;;;;;;;21.29;95.42;96983.75;5068062;28;20521;-73
2022/06/12 07:05:53;;;;;;;6.37;5.87;;;;;;;20.87;97.99;96990.47;5067736;28;20429;-74
2022/06/12 07:08:22;;;;;;;6.00;5.60;;;;;;;21.79;96.68;96995.41;5051458;28;20598;-74
2022/06/12 07:10:50;;;;;;;6.63;5.93;;;;;;;22.27;91.90;97009.28;5051413;28;20921;-74
2022/06/12 07:13:17;;;;;;;6.70;6.10;;;;;;;22.06;90.89;96976.97;5067719;28;20488;-73
2022/06/12 07:15:45;;;;;;;6.03;5.63;;;;;;;22.59;93.02;97000.41;5052317;28;20587;-73
2022/06/12 07:18:13;;;;;;;6.07;5.67;;;;;;;22.65;93.91;97006.94;5067636;28;20487;-76
2022/06/12 07:20:47;;;;;;;6.17;5.67;;;;;;;23.23;87.37;97008.31;5051224;28;20802;-74
2022/06/12 07:23:15;;;;;;;7.90;5.23;;;;;;;23.76;86.23;96999.97;5067552;28;20996;-74
2022/06/12 07:25:48;;;;;;;7.37;5.10;;;;;;;24.08;83.40;96994.34;5051127;28;20429;-74
2022/06/12 07:28:15;;;;;;;6.40;4.97;;;;;;;23.38;82.38;96977.44;5050784;28;20744;-74
2022/06/12 07:30:43;;;;;;;6.27;5.53;;;;;;;23.69;81.93;97005.41;5034452;28;20495;-74
2022/06/12 07:33:10;;;;;;;5.60;5.20;;;;;;;23.88;80.25;96985.22;5050762;28;20433;-74
2022/06/12 07:35:39;;;;;;;4.87;4.47;;;;;;;24.30;79.18;97002.28;5067299;28;20493;-74
2022/06/12 07:38:07;;;;;;;5.40;5.00;;;;;;;24.25;77.09;96995.34;5050576;28;20472;-74
2022/06/12 07:40:38;;;;;;;5.30;4.90;;;;;;;24.89;77.67;96989.34;5050997;28;20469;-75
2022/06/12 07:43:05;;;;;;;6.50;4.60;;;;;;;24.76;76.02;96975.56;5050645;28;20736;-75
2022/06/12 07:45:32;;;;;;;4.40;4.00;;;;;;;24.97;74.58;96976.47;5050986;28;20429;-74
2022/06/12 07:47:59;;;;;;;4.73;4.33;;;;;;;25.39;75.00;97004.25;5067324;28;20495;-75
2022/06/12 07:50:25;;;;;;;5.20;4.60;;;;;;;24.87;74.75;96988.97;5050344;28;20551;-74
2022/06/12 07:52:52;;;;;;;5.17;4.63;;;;;;;25.35;75.64;96980.66;5050555;28;20433;-74
2022/06/12 07:55:20;;;;;;;7.17;5.10;;;;;;;25.24;74.37;96969.25;5050079;28;20469;-74
2022/06/12 07:57:46;;;;;;;4.83;3.80;;;;;;;25.92;71.57;97003.53;5050259;28;20481;-74
2022/06/12 08:00:15;;;;;;;5.00;4.03;;;;;;;25.50;67.97;96994.03;5050315;28;20465;-75
2022/06/12 08:02:44;;;;;;;5.17;3.40;;;;;;;25.54;69.77;96995.53;5066782;28;20438;-74
2022/06/12 08:05:12;;;;;;;10.43;4.13;;;;;;;24.97;67.87;96969.16;5050132;28;20432;-74
2022/06/12 08:07:39;;;;;;;4.80;3.60;;;;;;;24.54;68.05;96976.19;5066693;28;20832;-74
2022/06/12 08:10:07;;;;;;;3.83;3.53;;;;;;;24.54;69.09;96997.81;5066060;28;20461;-74
2022/06/12 08:12:39;;;;;;;4.43;3.70;;;;;;;25.04;69.15;96990.75;5066779;28;21015;-74
2022/06/12 08:15:10;;;;;;;4.07;3.70;;;;;;;25.37;68.83;96995.75;5066597;28;20493;-75
2022/06/12 08:17:36;;;;;;;4.73;3.70;;;;;;;25.59;66.53;96994.28;5057367;28;20458;-74
2022/06/12 08:22:50;;;;;;;2.70;2.40;;;;;;;26.16;64.56;96996.94;5049929;28;20437;-74
2022/06/12 08:25:18;;;;;;;3.37;3.07;;;;;;;25.48;61.77;96996.38;5049937;28;20434;-74
2022/06/12 08:27:45;;;;;;;3.90;3.57;;;;;;;25.24;62.58;96984.69;5050136;28;20524;-74
2022/06/12 08:30:12;;;;;;;3.00;2.70;;;;;;;25.39;61.60;96967.09;5049746;28;20543;-74
2022/06/12 08:32:41;;;;;;;5.40;3.00;;;;;;;25.47;59.95;96967.75;5051080;28;20430;-74
2022/06/12 08:35:16;;;;;;;3.47;3.07;;;;;;;25.42;60.60;96992.59;5049836;28;20457;-74
2022/06/12 08:37:43;;;;;;;4.93;2.77;;;;;;;25.78;60.07;96974.72;5049904;28;20785;-73
2022/06/12 08:40:29;;;;;;;2.67;2.47;;;;;;;25.53;58.57;96977.75;5066209;28;20493;-73
2022/06/12 08:43:08;;;;;;;2.50;2.30;;;;;;;25.80;57.26;96977.75;5066113;28;20472;-73
2022/06/12 08:45:47;;;;;;;3.00;2.70;;;;;;;26.28;56.72;96973.13;5049638;28;20514;-73
2022/06/12 08:48:31;;;;;;;4.43;3.37;;;;;;;25.21;58.97;96961.91;5065874;28;20869;-73
2022/06/12 08:51:05;;;;;;;3.67;2.90;;;;;;;24.67;57.32;96967.16;5066028;28;20857;-73
2022/06/12 08:53:41;;;;;;;3.23;2.93;;;;;;;24.79;58.71;96975.94;5049529;28;20979;-73
2022/06/12 08:56:25;;;;;;;3.20;2.93;;;;;;;24.92;55.86;96966.88;5049508;28;20465;-73
2022/06/12 08:58:55;;;;;;;3.17;2.47;;;;;;;25.88;54.39;96970.28;5066184;28;20446;-73
2022/06/12 09:01:22;;;;;;;6.27;3.10;;;;;;;26.43;54.20;96969.00;5067179;28;20469;-75
2022/06/12 09:03:53;;;;;;;3.90;2.90;;;;;;;26.86;53.02;96976.38;5066644;28;20437;-75
2022/06/12 09:06:56;;;;;;;3.40;2.60;;;;;;;26.89;53.46;96973.56;5049926;28;20820;-75
2022/06/12 09:09:46;;;;;;;2.87;2.53;;;;;;;27.22;51.33;96971.00;5034717;28;20975;-75
2022/06/12 09:12:23;;;;;;;4.47;2.87;;;;;;;26.51;51.58;96968.47;5066108;28;20468;-75
2022/06/12 09:14:59;;;;;;;2.20;2.10;;;;;;;26.02;53.21;96958.44;5065814;28;20456;-74
2022/06/12 09:17:54;;;;;;;3.53;3.20;;;;;;;25.62;56.59;96956.31;5037259;28;20424;-74
2022/06/12 09:20:34;;;;;;;2.83;2.63;;;;;;;25.95;52.30;96962.03;5033149;28;20860;-74
2022/06/12 09:23:21;;;;;;;4.43;2.73;;;;;;;26.26;50.35;96961.91;5050446;28;20885;-74
2022/06/12 09:25:54;;;;;;;4.97;2.27;;;;;;;26.66;49.65;96960.81;5049380;28;20501;-75
2022/06/12 09:28:40;;;;;;;3.43;2.50;;;;;;;27.12;48.92;96958.44;5049333;28;21010;-72
2022/06/12 09:31:28;;;;;;;4.50;2.30;;;;;;;27.34;48.27;96959.47;5054114;28;20451;-72
2022/06/12 09:34:08;;;;;;;2.90;2.60;;;;;;;26.62;48.10;96930.28;5070204;28;20448;-74
2022/06/12 09:38:18;;;;;;;2.03;1.93;;;;;;;26.32;48.19;96947.47;5053906;28;20871;-73
2022/06/12 09:40:13;;;;;;;2.77;2.10;;;;;;;26.61;47.38;96947.75;5059784;28;20552;-72
2022/06/12 09:42:43;;;;;;;2.50;2.27;;;;;;;25.85;49.07;96939.34;5055909;28;20421;-72
2022/06/12 09:45:28;;;;;;;4.13;2.60;;;;;;;25.96;47.85;96908.59;5054135;28;20521;-72
2022/06/12 09:48:07;;;;;;;2.13;2.03;;;;;;;26.12;46.16;96952.09;5054274;28;20440;-72
2022/06/12 09:50:47;;;;;;;5.70;2.87;;;;;;;26.70;47.06;96939.03;5054272;28;20832;-73
2022/06/12 09:53:50;;;;;;;2.20;1.67;;;;;;;26.62;45.36;96940.38;5054246;28;20433;-72
2022/06/12 09:56:25;;;;;;;1.80;1.70;;;;;;;26.69;44.85;96938.28;5024760;28;20457;-72
2022/06/12 09:59:04;;;;;;;3.83;2.00;;;;;;;26.40;44.52;96923.72;5053876;28;20882;-72
2022/06/12 10:01:38;;;;;;;2.83;2.10;;;;;;;26.93;45.02;96938.97;5055422;28;20429;-72
2022/06/12 10:04:26;;;;;;;7.03;2.00;;;;;;;27.03;43.72;96946.19;5053760;28;20429;-72
2022/06/12 10:07:07;;;;;;;1.53;1.40;;;;;;;27.19;43.62;96922.97;5054190;28;20433;-72
2022/06/12 10:09:40;;;;;;;4.93;2.97;;;;;;;27.10;43.26;96920.81;5070477;28;21000;-72
2022/06/12 10:12:27;;;;;;;5.30;1.97;;;;;;;27.29;42.24;96935.56;5053506;28;20441;-72
2022/06/12 10:14:58;;;;;;;3.97;2.23;;;;;;;26.51;41.72;96933.19;5053196;28;20426;-72
2022/06/12 10:17:34;;;;;;;2.60;1.80;;;;;;;27.21;41.93;96921.34;5070080;28;20445;-74
2022/06/12 10:20:04;;;;;;;1.93;1.83;;;;;;;27.42;42.78;96919.34;5069962;28;20452;-72
2022/06/12 10:22:34;;;;;;;2.43;2.17;;;;;;;27.90;42.45;96913.19;5053401;28;20437;-72
2022/06/12 10:25:04;;;;;;;2.30;1.90;;;;;;;27.53;40.84;96933.47;5053403;28;20937;-73
2022/06/12 10:27:44;;;;;;;2.70;2.10;;;;;;;26.70;40.98;96898.34;5053047;28;20999;-72
2022/06/12 10:30:38;;;;;;;2.20;2.00;;;;;;;26.87;40.07;96915.47;5069895;28;20464;-72
2022/06/12 10:33:18;;;;;;;3.03;2.10;;;;;;;27.33;41.42;96912.53;5069887;28;20448;-73
2022/06/12 10:35:54;;;;;;;2.33;1.90;;;;;;;27.48;40.59;96896.69;5069917;28;20515;-74
2022/06/12 10:38:23;;;;;;;2.20;1.93;;;;;;;27.30;40.41;96888.94;5069657;28;20429;-72
2022/06/12 10:41:21;;;;;;;2.27;1.87;;;;;;;27.50;39.97;96899.72;5052530;28;20510;-73
2022/06/12 10:43:50;;;;;;;1.80;1.70;;;;;;;27.75;40.05;96901.91;5060024;28;20434;-72
2022/06/12 10:46:19;;;;;;;2.53;1.90;;;;;;;28.69;40.60;96906.47;5069633;28;20816;-72
2022/06/12 10:49:02;;;;;;;4.40;1.90;;;;;;;28.17;39.54;96907.44;5052772;28;20895;-73
2022/06/12 10:51:39;;;;;;;2.23;1.77;;;;;;;28.73;39.46;96897.03;5049924;28;20419;-73
2022/06/12 10:54:26;;;;;;;4.40;1.60;;;;;;;29.33;39.98;96902.69;5051949;28;20480;-74
2022/06/12 10:57:07;;;;;;;3.20;2.07;;;;;;;28.39;38.67;96897.56;5070296;28;20457;-73
2022/06/12 10:59:53;;;;;;;1.63;1.53;;;;;;;28.47;39.45;96888.03;5050240;28;20461;-73
2022/06/12 11:02:31;;;;;;;2.60;1.63;;;;;;;28.60;40.68;96885.34;5066187;28;20499;-73
2022/06/12 11:05:36;;;;;;;2.20;2.10;;;;;;;28.11;39.00;96871.09;5052808;28;20433;-73
2022/06/12 11:08:15;;;;;;;5.80;2.13;;;;;;;28.55;38.67;96883.91;5030937;28;20491;-73
2022/06/12 11:11:07;;;;;;;2.40;2.00;;;;;;;27.24;40.61;96863.47;5053191;28;20528;-72
2022/06/12 11:13:53;;;;;;;3.33;1.90;;;;;;;28.41;39.01;96869.94;5049560;28;20446;-74
2022/06/12 11:16:32;;;;;;;2.27;1.97;;;;;;;28.52;39.28;96873.13;5052622;28;21171;-73
2022/06/12 11:19:11;;;;;;;2.90;2.00;;;;;;;28.72;38.76;96865.56;5039541;28;20506;-73
2022/06/12 11:21:43;;;;;;;2.17;1.90;;;;;;;29.05;39.04;96855.28;5052642;28;20445;-73
2022/06/12 11:24:19;;;;;;;3.20;1.80;;;;;;;28.40;39.52;96830.31;5052948;28;20434;-73
2022/06/12 11:27:24;;;;;;;2.60;1.90;;;;;;;27.38;40.24;96803.41;5052863;28;20464;-73
2022/06/12 11:30:17;;;;;;;4.27;2.27;;;;;;;28.10;39.90;96847.81;4996040;28;20459;-73
2022/06/12 11:32:54;;;;;;;2.03;1.93;;;;;;;27.75;39.19;96839.38;5069710;28;20417;-73
2022/06/12 11:35:58;;;;;;;3.43;1.93;;;;;;;27.61;38.96;96842.44;5052797;28;20484;-73
2022/06/12 11:38:45;;;;;;;2.67;1.97;;;;;;;27.41;39.78;96830.91;5069150;28;20441;-73
2022/06/12 11:41:21;;;;;;;2.00;1.90;;;;;;;28.11;40.43;96841.19;5053812;28;20452;-73
2022/06/12 11:44:26;;;;;;;4.50;2.40;;;;;;;27.80;41.61;96836.16;5052380;28;20491;-73
2022/06/12 11:46:58;;;;;;;2.73;1.90;;;;;;;28.12;42.33;96846.19;5001023;28;20614;-73
2022/06/12 11:49:52;;;;;;;3.20;2.17;;;;;;;28.01;41.22;96834.81;5043935;28;20530;-73
2022/06/12 11:52:25;;;;;;;4.03;2.20;;;;;;;27.22;42.27;96825.09;5068952;28;20491;-73
2022/06/12 11:55:09;;;;;;;2.40;2.23;;;;;;;27.50;41.62;96825.63;5051544;28;20433;-73
2022/06/12 11:57:39;;;;;;;1.93;1.70;;;;;;;27.97;41.09;96828.72;5052200;28;20469;-72
2022/06/12 12:00:12;;;;;;;2.10;2.00;;;;;;;27.05;42.42;96824.34;5068570;28;20496;-72
2022/06/12 12:03:05;;;;;;;2.60;1.53;;;;;;;26.66;42.17;96816.25;5052692;28;20440;-72
2022/06/12 12:05:56;;;;;;;4.33;2.60;;;;;;;27.18;41.55;96816.28;5068798;28;20418;-73
2022/06/12 12:08:55;;;;;;;2.03;1.87;;;;;;;27.88;41.03;96823.13;5052029;28;20422;-73
2022/06/12 12:11:34;;;;;;;2.13;2.03;;;;;;;27.25;42.43;96808.00;5051983;28;20495;-73
2022/06/12 12:14:14;;;;;;;3.20;1.77;;;;;;;27.19;41.60;96812.38;5083135;28;21109;-72